createdAt,value
2019-02-05T00:00:56.810Z,9.80
2019-02-05T00:03:26.470Z,9.73
2019-02-05T00:05:55.874Z,9.43
2019-02-05T00:08:26.027Z,9.97
2019-02-05T00:10:55.942Z,9.23
2019-02-05T00:13:25.242Z,9.77
2019-02-05T00:15:54.933Z,9.37
2019-02-05T00:18:24.127Z,9.43
2019-02-05T00:20:53.853Z,9.40
2019-02-05T00:23:23.472Z,8.40
2019-02-05T00:25:53.521Z,9.47
2019-02-05T00:28:23.300Z,8.77
2019-02-05T00:30:52.705Z,9.07
2019-02-05T00:33:21.915Z,8.50
2019-02-05T00:35:51.622Z,8.77
2019-02-05T00:38:21.281Z,8.50
2019-02-05T00:40:50.673Z,8.53
2019-02-05T00:43:20.263Z,8.93
2019-02-05T00:45:49.579Z,8.80
2019-02-05T00:48:19.257Z,8.93
2019-02-05T00:50:48.495Z,8.50
2019-02-05T00:53:18.046Z,8.33
2019-02-05T00:55:47.261Z,9.00
2019-02-05T00:58:16.511Z,7.97
2019-02-05T01:00:45.642Z,7.93
2019-02-05T01:03:14.826Z,8.17
2019-02-05T01:05:44.046Z,8.17
2019-02-05T01:08:13.177Z,7.77
2019-02-05T01:10:42.398Z,7.80
2019-02-05T01:13:11.999Z,7.87
2019-02-05T01:15:41.370Z,7.53
2019-02-05T01:18:10.464Z,7.60
2019-02-05T01:20:39.635Z,7.63
2019-02-05T01:23:09.256Z,7.57
2019-02-05T01:25:38.973Z,8.07
2019-02-05T01:28:08.582Z,7.63
2019-02-05T01:30:38.234Z,8.10
2019-02-05T01:33:07.504Z,7.40
2019-02-05T01:35:36.647Z,8.10
2019-02-05T01:38:06.218Z,7.53
2019-02-05T01:40:35.449Z,7.80
2019-02-05T01:43:04.723Z,7.50
2019-02-05T01:45:33.950Z,7.17
2019-02-05T01:48:03.312Z,7.40
2019-02-05T01:50:32.575Z,7.20
2019-02-05T01:53:02.362Z,7.27
2019-02-05T01:55:31.640Z,8.20
2019-02-05T01:58:00.829Z,7.50
2019-02-05T02:00:31.176Z,7.67
2019-02-05T02:03:00.346Z,7.37
2019-02-05T02:05:30.054Z,7.77
2019-02-05T02:07:59.742Z,7.53
2019-02-05T02:10:29.270Z,6.93
2019-02-05T02:12:58.573Z,7.37
2019-02-05T02:15:28.450Z,8.20
2019-02-05T02:17:58.209Z,8.00
2019-02-05T02:20:28.011Z,8.20
2019-02-05T02:22:58.274Z,7.10
2019-02-05T02:25:29.041Z,7.27
2019-02-05T02:27:58.465Z,7.37
2019-02-05T02:30:33.855Z,7.80
2019-02-05T02:33:03.629Z,7.87
2019-02-05T02:35:33.214Z,7.90
2019-02-05T02:38:02.440Z,8.13
2019-02-05T02:40:32.073Z,8.20
2019-02-05T02:43:01.899Z,8.30
2019-02-05T02:45:31.241Z,8.63
2019-02-05T02:48:01.577Z,8.37
2019-02-05T02:50:31.522Z,8.53
2019-02-05T02:53:00.900Z,9.63
2019-02-05T02:55:30.234Z,10.30
2019-02-05T02:57:59.590Z,10.57
2019-02-05T03:00:28.832Z,10.40
2019-02-05T03:02:58.180Z,10.30
2019-02-05T03:05:28.123Z,10.20
2019-02-05T03:07:57.397Z,11.00
2019-02-05T03:10:27.431Z,11.93
2019-02-05T03:12:56.915Z,10.67
2019-02-05T03:15:27.021Z,10.83
2019-02-05T03:17:57.371Z,11.70
2019-02-05T03:20:26.619Z,11.73
2019-02-05T03:22:56.655Z,11.77
2019-02-05T03:25:32.230Z,12.50
2019-02-05T03:28:01.523Z,11.13
2019-02-05T03:30:31.252Z,11.80
2019-02-05T03:33:01.961Z,11.97
2019-02-05T03:35:31.730Z,12.23
2019-02-05T03:38:01.233Z,12.10
2019-02-05T03:40:52.414Z,12.43
2019-02-05T03:43:21.604Z,11.53
2019-02-05T03:45:50.914Z,13.40
2019-02-05T03:48:20.784Z,13.57
2019-02-05T03:50:54.297Z,13.07
2019-02-05T03:53:25.190Z,13.37
2019-02-05T03:56:01.830Z,12.80
2019-02-05T03:58:53.331Z,13.47
2019-02-05T04:01:40.170Z,13.43
2019-02-05T04:04:46.922Z,13.53
2019-02-05T04:07:23.858Z,12.87
2019-02-05T04:10:20.303Z,13.20
2019-02-05T04:13:11.679Z,13.70
2019-02-05T04:16:19.822Z,14.93
2019-02-05T04:19:11.217Z,13.10
2019-02-05T04:21:50.087Z,13.37
2019-02-05T04:24:40.323Z,12.87
2019-02-05T04:27:13.541Z,13.37
2019-02-05T04:29:59.918Z,13.27
2019-02-05T04:32:39.945Z,13.53
2019-02-05T04:35:21.150Z,14.53
2019-02-05T04:38:18.739Z,13.43
2019-02-05T04:41:00.350Z,13.83
2019-02-05T04:43:56.749Z,14.50
2019-02-05T04:46:51.252Z,14.03
2019-02-05T04:49:55.878Z,13.73
2019-02-05T04:52:47.426Z,13.37
2019-02-05T04:55:49.609Z,14.73
2019-02-05T04:58:38.654Z,13.60
2019-02-05T05:01:18.709Z,14.30
2019-02-05T05:04:03.715Z,14.40
2019-02-05T05:06:44.762Z,14.37
2019-02-05T05:09:33.914Z,13.87
2019-02-05T05:12:03.226Z,14.87
2019-02-05T05:14:32.422Z,13.63
2019-02-05T05:17:01.785Z,14.93
2019-02-05T05:19:31.790Z,14.80
2019-02-05T05:22:01.731Z,14.10
2019-02-05T05:24:31.784Z,14.73
2019-02-05T05:27:01.759Z,15.60
2019-02-05T05:29:33.160Z,14.40
2019-02-05T05:32:02.847Z,14.00
2019-02-05T05:34:32.157Z,14.33
2019-02-05T05:37:00.439Z,14.03
2019-02-05T05:39:29.911Z,14.93
2019-02-05T05:41:59.527Z,14.80
2019-02-05T05:44:28.838Z,15.27
2019-02-05T05:46:58.586Z,15.10
2019-02-05T05:49:27.895Z,15.33
2019-02-05T05:51:57.118Z,15.23
2019-02-05T05:54:26.744Z,14.33
2019-02-05T05:56:58.140Z,15.00
2019-02-05T05:59:27.911Z,14.67
2019-02-05T06:01:57.615Z,15.43
2019-02-05T06:04:27.123Z,15.67
2019-02-05T06:06:56.383Z,14.37
2019-02-05T06:09:25.991Z,15.30
2019-02-05T06:11:55.340Z,14.97
2019-02-05T06:14:24.526Z,15.53
2019-02-05T06:16:54.199Z,15.87
2019-02-05T06:19:23.718Z,16.17
2019-02-05T06:21:53.338Z,19.97
2019-02-05T06:24:23.211Z,16.13
2019-02-05T06:26:52.937Z,16.37
2019-02-05T06:29:22.899Z,15.73
2019-02-05T06:31:52.486Z,15.03
2019-02-05T06:34:22.406Z,16.20
2019-02-05T06:36:52.146Z,16.80
2019-02-05T06:39:21.891Z,15.97
2019-02-05T06:41:51.761Z,15.33
2019-02-05T06:44:21.507Z,15.30
2019-02-05T06:46:50.899Z,15.97
2019-02-05T06:49:20.664Z,16.50
2019-02-05T06:51:49.971Z,16.17
2019-02-05T06:54:19.513Z,15.53
2019-02-05T06:56:49.248Z,16.43
2019-02-05T06:59:18.993Z,16.27
2019-02-05T07:01:48.308Z,15.90
2019-02-05T07:04:17.533Z,15.87
2019-02-05T07:06:47.447Z,16.57
2019-02-05T07:09:16.818Z,17.00
2019-02-05T07:11:46.571Z,16.13
2019-02-05T07:14:16.554Z,16.33
2019-02-05T07:16:45.871Z,16.67
2019-02-05T07:19:15.596Z,16.93
2019-02-05T07:21:45.617Z,19.33
2019-02-05T07:24:15.384Z,18.50
2019-02-05T07:26:45.107Z,18.47
2019-02-05T07:29:14.818Z,16.67
2019-02-05T07:31:44.154Z,16.13
2019-02-05T07:34:13.319Z,15.77
2019-02-05T07:36:42.597Z,16.43
2019-02-05T07:39:12.337Z,17.17
2019-02-05T07:41:42.037Z,16.63
2019-02-05T07:44:11.859Z,16.80
2019-02-05T07:46:41.652Z,16.53
2019-02-05T07:49:11.614Z,16.77
2019-02-05T07:51:41.358Z,16.13
2019-02-05T07:54:10.659Z,17.10
2019-02-05T07:56:40.373Z,17.63
2019-02-05T07:59:10.646Z,16.80
2019-02-05T08:01:40.610Z,17.33
2019-02-05T08:04:10.322Z,17.13
2019-02-05T08:06:40.053Z,18.67
2019-02-05T08:09:10.809Z,17.57
2019-02-05T08:11:41.384Z,17.10
2019-02-05T08:14:10.821Z,18.30
2019-02-05T08:16:40.561Z,17.27
2019-02-05T08:19:10.330Z,18.03
2019-02-05T08:21:40.170Z,17.40
2019-02-05T08:24:09.994Z,17.63
2019-02-05T08:26:39.726Z,17.97
2019-02-05T08:29:21.137Z,18.07
2019-02-05T08:31:41.406Z,17.80
2019-02-05T08:34:10.698Z,18.37
2019-02-05T08:36:40.356Z,18.80
2019-02-05T08:39:10.666Z,18.00
2019-02-05T08:41:40.691Z,17.23
2019-02-05T08:44:10.634Z,18.57
2019-02-05T08:46:40.384Z,17.70
2019-02-05T08:49:10.085Z,18.33
2019-02-05T08:51:39.903Z,17.73
2019-02-05T08:54:10.920Z,16.83
2019-02-05T08:56:40.661Z,17.10
2019-02-05T08:59:09.963Z,17.93
2019-02-05T09:01:39.846Z,17.90
2019-02-05T09:04:09.555Z,18.20
2019-02-05T09:06:39.398Z,18.13
2019-02-05T09:09:08.871Z,18.70
2019-02-05T09:11:38.571Z,16.90
2019-02-05T09:14:10.997Z,18.23
2019-02-05T09:16:39.714Z,17.67
2019-02-05T09:19:09.887Z,17.53
2019-02-05T09:21:39.641Z,18.67
2019-02-05T09:24:09.392Z,17.77
2019-02-05T09:26:39.169Z,16.93
2019-02-05T09:29:08.438Z,17.73
2019-02-05T09:31:38.446Z,18.00
2019-02-05T09:34:08.229Z,18.47
2019-02-05T09:36:38.029Z,17.37
2019-02-05T09:39:08.224Z,17.60
2019-02-05T09:41:38.068Z,16.70
2019-02-05T09:44:07.848Z,16.20
2019-02-05T09:46:37.673Z,16.33
2019-02-05T09:49:07.659Z,16.83
2019-02-05T09:51:37.522Z,16.47
2019-02-05T09:54:07.489Z,17.00
2019-02-05T10:34:39.362Z,16.30
2019-02-05T10:37:08.737Z,15.10
2019-02-05T10:39:38.487Z,14.07
2019-02-05T10:42:08.408Z,15.73
2019-02-05T10:44:38.454Z,15.00
2019-02-05T10:47:08.265Z,15.33
2019-02-05T10:49:38.079Z,15.00
2019-02-05T10:52:07.385Z,14.60
2019-02-05T10:54:37.167Z,13.87
2019-02-05T10:57:06.928Z,14.13
2019-02-05T10:59:37.146Z,14.10
2019-02-05T11:02:07.086Z,14.27
2019-02-05T11:04:36.397Z,13.63
2019-02-05T11:07:06.118Z,13.57
2019-02-05T11:09:35.874Z,14.03
2019-02-05T11:12:05.824Z,14.70
2019-02-05T11:14:35.471Z,14.07
2019-02-05T11:17:05.091Z,14.30
2019-02-05T11:19:34.880Z,14.90
2019-02-05T11:22:04.703Z,14.13
2019-02-05T11:24:33.986Z,14.17
2019-02-05T11:27:04.278Z,14.57
2019-02-05T11:29:34.130Z,14.87
2019-02-05T11:32:04.392Z,14.37
2019-02-05T11:34:34.144Z,14.00
2019-02-05T11:37:04.794Z,13.43
2019-02-05T11:39:34.609Z,13.60
2019-02-05T11:42:04.435Z,14.70
2019-02-05T11:44:34.175Z,13.37
2019-02-05T11:47:04.449Z,13.30
2019-02-05T11:49:34.190Z,12.93
2019-02-05T11:52:04.472Z,13.63
2019-02-05T11:54:33.881Z,12.13
2019-02-05T11:57:03.602Z,13.30
2019-02-05T11:59:32.847Z,12.83
2019-02-05T12:02:02.148Z,12.70
2019-02-05T12:04:32.171Z,12.07
2019-02-05T12:07:02.059Z,12.77
2019-02-05T12:09:31.856Z,12.13
2019-02-05T12:12:01.606Z,12.03
2019-02-05T12:14:31.460Z,12.13
2019-02-05T12:17:01.576Z,11.60
2019-02-05T12:19:34.114Z,13.07
2019-02-05T12:22:04.888Z,12.63
2019-02-05T12:24:36.002Z,12.07
2019-02-05T12:27:07.270Z,12.63
2019-02-05T12:29:36.889Z,12.33
2019-02-05T12:32:06.894Z,11.97
2019-02-05T12:34:36.690Z,12.43
2019-02-05T12:37:06.447Z,12.80
2019-02-05T12:39:36.677Z,13.13
2019-02-05T12:42:07.108Z,13.23
2019-02-05T12:44:37.174Z,13.20
2019-02-05T12:47:07.490Z,13.83
2019-02-05T12:49:37.581Z,14.53
2019-02-05T12:52:07.474Z,14.63
2019-02-05T12:54:37.489Z,14.90
2019-02-05T12:57:06.791Z,14.53
2019-02-05T12:59:36.590Z,14.60
2019-02-05T13:02:06.444Z,14.70
2019-02-05T13:04:41.853Z,13.90
2019-02-05T13:07:13.735Z,14.83
2019-02-05T13:09:46.862Z,14.77
2019-02-05T13:12:18.714Z,15.50
2019-02-05T13:14:51.493Z,15.47
2019-02-05T13:17:26.914Z,15.60
2019-02-05T13:20:03.539Z,14.50
2019-02-05T13:22:38.699Z,14.73
2019-02-05T13:25:10.662Z,13.87
2019-02-05T13:27:41.279Z,14.30
2019-02-05T13:30:14.879Z,13.50
2019-02-05T13:32:44.178Z,14.40
2019-02-05T13:35:14.467Z,14.00
2019-02-05T13:37:44.381Z,12.67
2019-02-05T13:40:15.100Z,14.40
2019-02-05T13:42:44.828Z,14.53
2019-02-05T13:45:15.137Z,14.20
2019-02-05T13:47:44.876Z,14.10
2019-02-05T13:50:18.308Z,15.17
2019-02-05T13:52:48.681Z,14.70
2019-02-05T13:55:19.538Z,14.63
2019-02-05T13:57:49.335Z,14.47
2019-02-05T14:00:22.380Z,14.93
2019-02-05T14:02:53.890Z,15.27
2019-02-05T14:05:24.538Z,16.73
2019-02-05T14:07:54.349Z,17.43
2019-02-05T14:10:26.959Z,14.57
2019-02-05T14:12:57.439Z,14.63
2019-02-05T14:15:29.450Z,13.70
2019-02-05T14:17:59.263Z,14.30
2019-02-05T14:20:29.005Z,13.97
2019-02-05T14:22:58.782Z,15.17
2019-02-05T14:25:28.099Z,14.83
2019-02-05T14:27:57.895Z,14.40
2019-02-05T14:30:30.617Z,14.10
2019-02-05T14:32:59.874Z,14.37
2019-02-05T14:35:29.040Z,13.57
2019-02-05T14:37:58.706Z,13.40
2019-02-05T14:40:28.411Z,13.97
2019-02-05T14:42:58.532Z,13.80
2019-02-05T14:45:28.095Z,14.40
2019-02-05T14:48:00.605Z,13.77
2019-02-05T14:50:31.596Z,13.40
2019-02-05T14:53:00.956Z,13.30
2019-02-05T14:55:30.240Z,13.47
2019-02-05T14:58:00.007Z,15.40
2019-02-05T15:00:32.138Z,16.60
2019-02-05T15:03:02.357Z,13.93
2019-02-05T15:05:32.331Z,16.90
2019-02-05T15:08:02.073Z,13.83
2019-02-05T15:10:31.787Z,14.07
2019-02-05T15:13:01.751Z,14.27
2019-02-05T15:15:31.994Z,14.00
2019-02-05T15:18:01.412Z,13.80
2019-02-05T15:20:37.275Z,13.87
2019-02-05T15:23:07.374Z,13.27
2019-02-05T15:25:37.561Z,13.50
2019-02-05T15:28:07.456Z,14.27
2019-02-05T15:30:39.014Z,14.17
2019-02-05T15:33:37.643Z,14.20
2019-02-05T15:36:32.018Z,13.17
2019-02-05T15:39:01.717Z,14.20
2019-02-05T15:41:33.245Z,14.30
2019-02-05T15:44:03.073Z,14.57
2019-02-05T15:46:33.864Z,13.80
2019-02-05T15:49:03.516Z,14.20
2019-02-05T15:51:33.235Z,15.10
2019-02-05T15:54:02.866Z,15.50
2019-02-05T15:56:32.175Z,16.27
2019-02-05T15:59:01.423Z,13.53
2019-02-05T16:01:30.818Z,14.00
2019-02-05T16:04:00.210Z,13.57
2019-02-05T16:06:29.871Z,13.13
2019-02-05T16:08:59.531Z,13.83
2019-02-05T16:11:29.393Z,13.60
2019-02-05T16:13:58.667Z,13.80
2019-02-05T16:16:28.403Z,14.20
2019-02-05T16:18:58.157Z,14.23
2019-02-05T16:21:27.989Z,13.60
2019-02-05T16:23:58.236Z,14.60
2019-02-05T16:26:28.065Z,13.80
2019-02-05T16:28:57.261Z,13.00
2019-02-05T16:31:28.014Z,14.57
2019-02-05T16:33:58.202Z,13.70
2019-02-05T16:36:27.465Z,14.27
2019-02-05T16:38:57.073Z,16.80
2019-02-05T16:41:26.326Z,13.40
2019-02-05T16:43:55.567Z,13.27
2019-02-05T16:46:25.506Z,13.77
2019-02-05T16:48:54.716Z,17.37
2019-02-05T16:51:24.634Z,14.70
2019-02-05T16:53:54.157Z,14.17
2019-02-05T16:56:24.295Z,14.87
2019-02-05T16:58:53.977Z,13.97
2019-02-05T17:01:23.204Z,14.33
2019-02-05T17:03:53.858Z,14.00
2019-02-05T17:06:24.162Z,14.10
2019-02-05T17:08:54.220Z,14.17
2019-02-05T17:11:24.523Z,14.73
2019-02-05T17:13:55.048Z,14.13
2019-02-05T17:16:25.198Z,14.00
2019-02-05T17:18:55.157Z,13.60
2019-02-05T17:21:24.542Z,14.10
2019-02-05T17:23:53.728Z,13.50
2019-02-05T17:26:23.323Z,13.53
2019-02-05T17:28:54.072Z,13.53
2019-02-05T17:31:23.782Z,12.77
2019-02-05T17:33:53.708Z,13.50
2019-02-05T17:36:23.064Z,13.00
2019-02-05T17:38:52.695Z,11.50
2019-02-05T17:41:22.424Z,11.93
2019-02-05T17:43:52.263Z,13.37
2019-02-05T17:46:22.065Z,13.57
2019-02-05T17:48:51.350Z,12.50
2019-02-05T17:51:21.497Z,13.17
2019-02-05T17:53:51.178Z,13.07
2019-02-05T17:56:23.879Z,12.90
2019-02-05T17:58:53.910Z,13.10
2019-02-05T18:01:23.979Z,12.73
2019-02-05T18:03:53.852Z,12.17
2019-02-05T18:06:23.468Z,13.33
2019-02-05T18:08:53.133Z,13.10
2019-02-05T18:11:23.337Z,13.90
2019-02-05T18:13:52.757Z,12.80
2019-02-05T18:16:24.271Z,13.40
2019-02-05T18:18:54.427Z,13.93
2019-02-05T18:21:23.881Z,13.63
2019-02-05T18:23:56.334Z,13.90
2019-02-05T18:26:25.692Z,12.83
2019-02-05T18:28:55.283Z,12.93
2019-02-05T18:31:24.585Z,13.17
2019-02-05T18:33:54.221Z,13.57
2019-02-05T18:36:24.232Z,12.73
2019-02-05T18:38:53.547Z,14.13
2019-02-05T18:41:23.296Z,13.10
2019-02-05T18:43:52.584Z,13.80
2019-02-05T18:46:22.367Z,13.43
2019-02-05T18:49:04.270Z,12.93
2019-02-05T18:51:24.142Z,13.37
2019-02-05T18:53:54.112Z,12.57
2019-02-05T18:56:23.735Z,12.67
2019-02-05T18:58:53.500Z,12.97
2019-02-05T19:01:23.589Z,12.97
2019-02-05T19:03:53.682Z,13.13
2019-02-05T19:06:23.719Z,13.03
2019-02-05T19:08:54.086Z,13.60
2019-02-05T19:11:24.153Z,13.00
2019-02-05T19:13:54.701Z,13.23
2019-02-05T19:16:24.440Z,13.07
2019-02-05T19:18:54.354Z,13.23
2019-02-05T19:21:24.130Z,13.57
2019-02-05T19:24:07.962Z,13.73
2019-02-05T19:26:45.908Z,13.50
2019-02-05T19:29:19.051Z,13.77
2019-02-05T19:31:49.608Z,13.50
2019-02-05T19:34:18.951Z,13.57
2019-02-05T19:36:48.195Z,13.20
2019-02-05T19:39:17.882Z,13.53
2019-02-05T19:41:47.635Z,13.87
2019-02-05T19:44:17.374Z,13.97
2019-02-05T19:46:51.703Z,13.53
2019-02-05T19:49:23.692Z,13.97
2019-02-05T19:51:53.288Z,14.00
2019-02-05T19:54:22.793Z,14.13
2019-02-05T19:56:52.836Z,14.60
2019-02-05T19:59:23.333Z,15.47
2019-02-05T20:01:53.118Z,22.13
2019-02-05T20:04:22.886Z,14.63
2019-02-05T20:06:52.882Z,14.77
2019-02-05T20:09:22.873Z,14.33
2019-02-05T20:11:52.710Z,14.47
2019-02-05T20:14:22.398Z,14.17
2019-02-05T20:16:55.390Z,14.13
2019-02-05T20:19:25.480Z,15.10
2019-02-05T20:21:55.656Z,17.53
2019-02-05T20:24:25.455Z,15.00
2019-02-05T20:26:55.708Z,25.67
2019-02-05T20:29:30.915Z,15.37
2019-02-05T20:32:00.671Z,14.20
2019-02-05T20:34:29.875Z,14.30
2019-02-05T20:37:02.562Z,14.33
2019-02-05T20:39:31.828Z,14.77
2019-02-05T20:42:01.004Z,14.43
2019-02-05T20:44:30.756Z,14.60
2019-02-05T21:08:23.106Z,14.30
2019-02-05T21:10:53.801Z,15.57
2019-02-05T21:13:24.849Z,15.67
2019-02-05T21:15:54.957Z,15.73
2019-02-05T21:18:34.263Z,15.93
2019-02-05T21:21:07.170Z,16.13
2019-02-05T21:23:38.118Z,16.07
2019-02-05T21:26:10.749Z,14.70
2019-02-05T21:28:45.938Z,16.37
2019-02-05T21:31:16.020Z,16.23
2019-02-05T21:33:46.156Z,17.40
2019-02-05T21:39:41.032Z,17.30
2019-02-05T21:42:18.185Z,17.33
2019-02-05T21:44:55.753Z,17.50
2019-02-05T21:47:25.331Z,17.40
2019-02-05T21:49:55.781Z,17.50
2019-02-05T21:52:29.052Z,18.67
2019-02-05T21:55:14.122Z,17.47
2019-02-05T21:57:58.935Z,17.40
2019-02-05T22:00:29.208Z,16.77
2019-02-05T22:02:58.866Z,16.97
2019-02-05T22:05:28.333Z,17.37
2019-02-05T22:07:58.670Z,17.20
2019-02-05T22:10:28.763Z,17.93
2019-02-05T22:12:58.692Z,18.03
2019-02-05T22:15:28.719Z,16.40
2019-02-05T22:21:29.405Z,16.27
2019-02-05T22:23:59.085Z,17.20
2019-02-05T22:26:28.672Z,17.67
2019-02-05T22:28:58.607Z,17.77
2019-02-05T22:31:40.491Z,17.63
2019-02-05T22:34:39.414Z,17.33
2019-02-05T22:37:20.475Z,17.20
2019-02-05T22:40:00.325Z,17.60
2019-02-05T22:42:42.694Z,16.83
2019-02-05T22:45:19.975Z,16.40
2019-02-05T22:48:01.876Z,17.13
2019-02-05T22:50:38.918Z,17.00
2019-02-05T22:53:19.320Z,16.67
2019-02-05T22:56:03.566Z,16.60
2019-02-05T22:58:45.060Z,15.93
2019-02-05T23:01:32.720Z,17.67
2019-02-05T23:04:28.186Z,17.07
2019-02-05T23:10:51.664Z,16.93
2019-02-05T23:13:22.821Z,17.67
2019-02-05T23:16:01.679Z,17.70
2019-02-05T23:18:49.970Z,17.13
2019-02-05T23:21:33.173Z,17.30
2019-02-05T23:24:19.741Z,17.13
2019-02-05T23:27:01.590Z,15.70
2019-02-05T23:29:34.982Z,15.77
2019-02-05T23:32:04.801Z,15.37
2019-02-05T23:34:40.874Z,13.77
2019-02-05T23:37:17.943Z,13.30
2019-02-05T23:42:40.803Z,14.40
2019-02-05T23:45:26.718Z,15.53
2019-02-05T23:48:00.466Z,14.43
2019-02-05T23:50:30.124Z,16.20
2019-02-05T23:52:59.437Z,15.77
2019-02-05T23:55:29.176Z,15.00
2019-02-05T23:57:58.392Z,16.60
